Time;durP1;ratioP1;P1;durP2;ratioP2;P2;SDS_P1;SDS_P2;PMS_P1;PMS_P2;Temp;Humidity;BMP_temperature;BMP_pressure;BME280_temperature;BME280_humidity;BME280_pressure;Samples;Min_cycle;Max_cycle;Signal;HPM_P1;HPM_P2
2021/07/29 00:00:32;;;;;;;7.10;4.40;;;;;;;;;;5092095;28;20157;-66
2021/07/29 00:03:17;;;;;;;8.27;4.50;;;;;;;;;;5109889;28;20043;-66
2021/07/29 00:06:03;;;;;;;8.05;4.03;;;;;;;;;;5112633;28;20044;-66
2021/07/29 00:08:48;;;;;;;7.40;3.80;;;;;;;;;;5113066;28;20401;-65
2021/07/29 00:11:34;;;;;;;7.30;4.35;;;;;;;;;;5110798;28;20059;-66
2021/07/29 00:14:19;;;;;;;8.32;4.35;;;;;;;;;;5099024;28;20370;-66
2021/07/29 00:17:10;;;;;;;6.35;3.72;;;;;;;;;;5111987;28;20127;-66
2021/07/29 00:19:56;;;;;;;6.22;4.05;;;;;;;;;;5112665;28;20054;-65
2021/07/29 00:22:42;;;;;;;6.25;3.80;;;;;;;;;;5111297;28;20044;-66
2021/07/29 00:25:27;;;;;;;4.72;3.53;;;;;;;;;;5112576;28;20176;-65
2021/07/29 00:28:12;;;;;;;4.93;3.45;;;;;;;;;;5112353;28;20562;-66
2021/07/29 00:30:58;;;;;;;7.93;4.00;;;;;;;;;;5112391;28;20074;-66
2021/07/29 00:33:43;;;;;;;8.27;4.25;;;;;;;;;;5098193;28;20059;-66
2021/07/29 00:36:31;;;;;;;8.15;4.00;;;;;;;;;;5092770;28;20047;-66
2021/07/29 00:39:17;;;;;;;7.03;3.70;;;;;;;;;;5092499;28;20119;-65
2021/07/29 00:42:03;;;;;;;8.70;4.72;;;;;;;;;;5096092;28;20046;-66
2021/07/29 00:44:49;;;;;;;7.32;3.60;;;;;;;;;;5096960;28;20044;-66
2021/07/29 00:47:34;;;;;;;5.00;3.13;;;;;;;;;;5096949;28;20044;-66
2021/07/29 00:50:19;;;;;;;9.32;3.80;;;;;;;;;;5095936;28;20043;-66
2021/07/29 00:53:06;;;;;;;6.07;3.05;;;;;;;;;;5096770;28;20066;-66
2021/07/29 00:55:51;;;;;;;10.48;3.88;;;;;;;;;;5096145;28;20063;-66
2021/07/29 00:58:37;;;;;;;5.85;3.58;;;;;;;;;;5095958;28;20094;-66
2021/07/29 01:01:23;;;;;;;6.38;3.50;;;;;;;;;;5095360;28;20043;-66
2021/07/29 01:04:10;;;;;;;5.88;3.63;;;;;;;;;;5096136;28;20059;-66
2021/07/29 01:06:55;;;;;;;5.80;3.55;;;;;;;;;;5095776;28;20040;-66
2021/07/29 01:09:40;;;;;;;4.30;3.58;;;;;;;;;;5094488;28;20052;-66
2021/07/29 01:12:25;;;;;;;5.28;3.33;;;;;;;;;;5101485;28;20040;-66
2021/07/29 01:15:11;;;;;;;8.20;4.38;;;;;;;;;;5116237;28;20049;-66
2021/07/29 01:18:00;;;;;;;6.32;3.63;;;;;;;;;;5115957;28;20040;-65
2021/07/29 01:20:46;;;;;;;10.30;4.35;;;;;;;;;;5115557;28;20408;-66
2021/07/29 01:23:31;;;;;;;6.45;3.78;;;;;;;;;;5114363;28;20063;-66
2021/07/29 01:26:16;;;;;;;5.50;3.70;;;;;;;;;;5115509;28;20050;-66
2021/07/29 01:29:02;;;;;;;4.85;3.17;;;;;;;;;;5115417;28;20193;-66
2021/07/29 01:31:47;;;;;;;8.10;3.30;;;;;;;;;;5116287;28;20067;-66
2021/07/29 01:34:33;;;;;;;7.40;3.97;;;;;;;;;;5114174;28;20047;-65
2021/07/29 01:37:18;;;;;;;7.28;4.07;;;;;;;;;;5115587;28;20078;-66
2021/07/29 01:40:04;;;;;;;7.68;4.05;;;;;;;;;;5115357;28;20050;-65
2021/07/29 01:42:49;;;;;;;7.53;3.72;;;;;;;;;;5113389;28;20040;-65
2021/07/29 01:45:34;;;;;;;7.60;3.80;;;;;;;;;;5094819;28;20068;-66
2021/07/29 01:48:19;;;;;;;7.68;3.92;;;;;;;;;;5094669;28;20050;-65
2021/07/29 01:51:05;;;;;;;6.68;3.60;;;;;;;;;;5094140;28;20072;-66
2021/07/29 01:53:50;;;;;;;8.30;3.80;;;;;;;;;;5100982;28;20054;-66
2021/07/29 01:56:36;;;;;;;8.85;3.95;;;;;;;;;;5115647;28;20043;-66
2021/07/29 01:59:21;;;;;;;5.20;3.60;;;;;;;;;;5115556;28;20409;-66
2021/07/29 02:02:06;;;;;;;9.50;3.60;;;;;;;;;;5115250;28;20150;-66
2021/07/29 02:04:52;;;;;;;8.95;4.22;;;;;;;;;;5101571;28;20044;-66
2021/07/29 02:07:37;;;;;;;9.70;4.47;;;;;;;;;;5094648;28;20048;-66
2021/07/29 02:10:22;;;;;;;7.18;4.00;;;;;;;;;;5094493;28;20086;-66
2021/07/29 02:13:08;;;;;;;6.97;3.85;;;;;;;;;;5094313;28;20051;-66
2021/07/29 02:15:53;;;;;;;6.13;4.20;;;;;;;;;;5112340;28;20062;-66
2021/07/29 02:18:38;;;;;;;4.28;1.00;;;;;;;;;;5115306;28;20546;-66
2021/07/29 02:21:24;;;;;;;1.73;0.80;;;;;;;;;;5116060;28;20044;-66
2021/07/29 02:24:09;;;;;;;1.25;0.70;;;;;;;;;;5112621;28;20055;-65
2021/07/29 02:26:54;;;;;;;2.17;0.75;;;;;;;;;;5114439;28;20043;-65
2021/07/29 02:29:40;;;;;;;2.83;0.90;;;;;;;;;;5114703;28;20043;-66
2021/07/29 02:32:27;;;;;;;2.03;0.90;;;;;;;;;;5115196;28;20138;-65
2021/07/29 02:35:12;;;;;;;1.10;0.47;;;;;;;;;;5107342;28;20506;-65
2021/07/29 02:37:57;;;;;;;1.52;0.52;;;;;;;;;;5092821;28;20040;-65
2021/07/29 02:40:43;;;;;;;1.13;0.60;;;;;;;;;;5108859;28;20051;-65
2021/07/29 02:43:28;;;;;;;1.17;0.30;;;;;;;;;;5114149;28;20077;-65
2021/07/29 02:46:13;;;;;;;1.23;0.38;;;;;;;;;;5113369;28;20554;-65
2021/07/29 02:48:59;;;;;;;1.20;0.28;;;;;;;;;;5114640;28;20169;-65
2021/07/29 02:51:44;;;;;;;1.75;0.50;;;;;;;;;;5114154;28;20508;-65
2021/07/29 02:54:30;;;;;;;1.05;0.40;;;;;;;;;;5114091;28;20062;-65
2021/07/29 02:57:15;;;;;;;1.02;0.50;;;;;;;;;;5113438;28;20058;-65
2021/07/29 03:00:01;;;;;;;2.10;0.47;;;;;;;;;;5113725;28;20545;-65
2021/07/29 03:02:46;;;;;;;2.25;0.50;;;;;;;;;;5112849;28;20052;-65
2021/07/29 03:05:32;;;;;;;1.23;0.60;;;;;;;;;;5112805;28;20043;-65
2021/07/29 03:08:18;;;;;;;1.45;0.68;;;;;;;;;;5093509;28;20040;-65
2021/07/29 03:11:04;;;;;;;2.50;0.60;;;;;;;;;;5108813;22;20051;-65
2021/07/29 03:13:49;;;;;;;1.35;0.40;;;;;;;;;;5077594;28;20421;-66
2021/07/29 03:16:34;;;;;;;3.72;0.80;;;;;;;;;;5088763;28;20508;-65
2021/07/29 03:19:20;;;;;;;3.45;0.70;;;;;;;;;;5090637;28;20133;-65
2021/07/29 03:22:05;;;;;;;2.92;0.80;;;;;;;;;;5091496;28;20422;-66
2021/07/29 03:24:50;;;;;;;4.82;0.90;;;;;;;;;;5091837;28;20103;-65
2021/07/29 03:27:36;;;;;;;2.10;0.85;;;;;;;;;;5092940;28;20557;-65
2021/07/29 03:30:21;;;;;;;3.13;1.05;;;;;;;;;;5090146;28;20050;-67
2021/07/29 03:33:09;;;;;;;2.00;0.98;;;;;;;;;;5092856;28;20048;-67
2021/07/29 03:35:54;;;;;;;4.07;1.23;;;;;;;;;;5090543;28;20052;-66
2021/07/29 03:38:40;;;;;;;4.55;1.65;;;;;;;;;;5092930;28;20048;-66
2021/07/29 03:41:25;;;;;;;3.38;2.28;;;;;;;;;;5090544;28;20098;-66
2021/07/29 03:44:10;;;;;;;3.42;2.08;;;;;;;;;;5090514;28;20083;-66
2021/07/29 03:46:56;;;;;;;3.35;1.67;;;;;;;;;;5087288;28;20040;-65
2021/07/29 03:49:41;;;;;;;5.80;2.30;;;;;;;;;;5086942;28;20497;-65
2021/07/29 03:52:27;;;;;;;4.57;2.38;;;;;;;;;;5092420;28;20048;-66
2021/07/29 03:55:12;;;;;;;4.90;2.40;;;;;;;;;;5092641;28;20048;-67
2021/07/29 03:58:00;;;;;;;9.18;2.70;;;;;;;;;;5086668;28;20051;-66
2021/07/29 04:00:45;;;;;;;7.97;3.20;;;;;;;;;;5089171;28;20043;-67
2021/07/29 04:03:32;;;;;;;4.40;2.80;;;;;;;;;;5083330;28;20087;-66
2021/07/29 04:06:18;;;;;;;6.07;3.00;;;;;;;;;;5092320;28;20459;-67
2021/07/29 04:09:03;;;;;;;6.13;3.08;;;;;;;;;;5092318;28;20166;-66
2021/07/29 04:11:49;;;;;;;5.60;2.92;;;;;;;;;;5090003;28;20142;-66
2021/07/29 04:14:37;;;;;;;6.55;3.22;;;;;;;;;;5092056;28;20124;-67
2021/07/29 04:17:22;;;;;;;9.00;3.55;;;;;;;;;;5076491;28;20565;-66
2021/07/29 04:20:08;;;;;;;6.47;3.15;;;;;;;;;;5087124;28;20417;-65
2021/07/29 04:22:54;;;;;;;8.77;3.70;;;;;;;;;;5089604;28;20169;-67
2021/07/29 04:25:39;;;;;;;9.63;3.70;;;;;;;;;;5090447;28;20052;-65
2021/07/29 04:28:25;;;;;;;9.77;3.40;;;;;;;;;;5086835;28;20051;-65
2021/07/29 04:31:10;;;;;;;6.72;3.10;;;;;;;;;;5091851;28;20059;-65
2021/07/29 04:33:56;;;;;;;10.20;3.97;;;;;;;;;;5088624;28;20083;-65
2021/07/29 04:36:41;;;;;;;6.85;3.20;;;;;;;;;;5071376;28;20125;-66
2021/07/29 04:39:27;;;;;;;7.72;3.30;;;;;;;;;;5081029;28;20055;-66
2021/07/29 04:42:13;;;;;;;5.13;2.67;;;;;;;;;;5086366;28;20047;-67
2021/07/29 04:44:58;;;;;;;7.07;3.20;;;;;;;;;;5092004;28;20055;-65
2021/07/29 04:47:44;;;;;;;9.35;3.38;;;;;;;;;;5091963;28;20379;-66
2021/07/29 04:50:29;;;;;;;14.30;3.78;;;;;;;;;;5086197;28;20414;-67
2021/07/29 04:53:14;;;;;;;9.15;3.50;;;;;;;;;;5088859;28;20044;-67
2021/07/29 04:56:00;;;;;;;5.93;3.45;;;;;;;;;;5087409;28;20048;-67
2021/07/29 04:58:47;;;;;;;14.20;4.35;;;;;;;;;;5091729;28;20069;-66
2021/07/29 05:01:36;;;;;;;7.00;3.83;;;;;;;;;;5091076;28;20040;-63
2021/07/29 05:04:21;;;;;;;7.85;3.78;;;;;;;;;;5064524;28;20041;-67
2021/07/29 05:07:07;;;;;;;8.68;3.42;;;;;;;;;;5070041;28;20134;-67
2021/07/29 05:09:52;;;;;;;11.07;3.90;;;;;;;;;;5068793;28;20044;-67
2021/07/29 05:12:38;;;;;;;10.02;3.80;;;;;;;;;;5070405;28;20056;-64
2021/07/29 05:15:23;;;;;;;11.32;3.95;;;;;;;;;;5070209;28;20076;-66
2021/07/29 05:18:08;;;;;;;17.00;4.57;;;;;;;;;;5069709;28;20419;-65
2021/07/29 05:20:54;;;;;;;10.45;3.55;;;;;;;;;;5069091;28;20041;-66
2021/07/29 05:23:39;;;;;;;10.80;3.83;;;;;;;;;;5069012;28;20045;-65
2021/07/29 05:26:25;;;;;;;9.30;3.63;;;;;;;;;;5072560;28;20147;-66
2021/07/29 05:29:10;;;;;;;11.65;3.20;;;;;;;;;;5069963;28;20055;-64
2021/07/29 05:31:56;;;;;;;9.65;3.25;;;;;;;;;;5074504;28;20453;-65
2021/07/29 05:34:42;;;;;;;13.50;2.83;;;;;;;;;;5075070;28;20070;-66
2021/07/29 05:37:27;;;;;;;13.75;4.68;;;;;;;;;;5064259;28;20055;-65
2021/07/29 05:40:13;;;;;;;8.18;2.55;;;;;;;;;;5072723;28;20040;-64
2021/07/29 05:43:01;;;;;;;8.73;3.00;;;;;;;;;;5071734;28;20052;-64
2021/07/29 05:45:46;;;;;;;4.82;2.92;;;;;;;;;;5071408;28;20487;-65
2021/07/29 05:48:32;;;;;;;26.50;3.60;;;;;;;;;;5071216;28;20054;-64
2021/07/29 05:51:17;;;;;;;8.07;3.15;;;;;;;;;;5069578;28;20083;-65
2021/07/29 05:54:02;;;;;;;7.60;2.88;;;;;;;;;;5071682;28;20110;-65
2021/07/29 05:56:48;;;;;;;8.18;2.50;;;;;;;;;;5068555;28;20059;-67
2021/07/29 05:59:33;;;;;;;11.52;2.47;;;;;;;;;;5077884;28;20118;-64
2021/07/29 06:02:18;;;;;;;7.43;2.90;;;;;;;;;;5082302;28;20068;-66
2021/07/29 06:05:03;;;;;;;6.75;2.20;;;;;;;;;;5071545;28;20045;-65
2021/07/29 06:07:48;;;;;;;9.38;2.72;;;;;;;;;;5070189;28;20549;-66
2021/07/29 06:10:34;;;;;;;12.23;3.05;;;;;;;;;;5068002;28;20052;-65
2021/07/29 06:13:19;;;;;;;10.18;2.65;;;;;;;;;;5069983;28;20075;-66
2021/07/29 06:16:09;;;;;;;7.63;2.97;;;;;;;;;;5070389;28;20052;-64
2021/07/29 06:19:05;;;;;;;10.35;2.70;;;;;;;;;;5068507;28;20056;-67
2021/07/29 06:21:50;;;;;;;11.80;2.78;;;;;;;;;;5068313;28;20040;-66
2021/07/29 06:24:36;;;;;;;7.63;2.60;;;;;;;;;;5068824;28;20041;-66
2021/07/29 06:27:22;;;;;;;9.95;2.42;;;;;;;;;;5070337;28;20036;-63
2021/07/29 06:30:07;;;;;;;11.52;2.78;;;;;;;;;;5067306;28;20205;-64
2021/07/29 06:32:53;;;;;;;10.50;3.45;;;;;;;;;;5067203;28;20530;-66
2021/07/29 06:35:39;;;;;;;9.02;3.85;;;;;;;;;;5069937;28;20060;-66
2021/07/29 06:38:24;;;;;;;10.57;2.88;;;;;;;;;;5064821;28;20044;-64
2021/07/29 06:41:10;;;;;;;9.02;2.72;;;;;;;;;;5091536;28;20040;-64
2021/07/29 06:43:55;;;;;;;11.07;2.78;;;;;;;;;;5085031;28;20432;-63
2021/07/29 06:46:41;;;;;;;9.60;2.95;;;;;;;;;;5104382;28;20101;-64
2021/07/29 06:49:31;;;;;;;10.35;3.03;;;;;;;;;;5085977;28;20066;-71
2021/07/29 06:52:16;;;;;;;9.70;3.50;;;;;;;;;;5080874;28;20128;-64
2021/07/29 06:55:04;;;;;;;10.98;3.70;;;;;;;;;;5079938;28;20490;-64
2021/07/29 06:57:49;;;;;;;11.43;3.65;;;;;;;;;;5070459;28;20506;-65
2021/07/29 07:00:34;;;;;;;11.77;4.20;;;;;;;;;;5082314;28;20050;-65
2021/07/29 07:03:19;;;;;;;12.07;3.72;;;;;;;;;;5084912;28;20189;-64
2021/07/29 07:06:05;;;;;;;11.63;3.33;;;;;;;;;;5070681;28;20449;-64
2021/07/29 07:08:50;;;;;;;14.13;4.30;;;;;;;;;;5072380;28;20056;-65
2021/07/29 07:11:35;;;;;;;11.48;3.50;;;;;;;;;;5090372;28;20054;-64
2021/07/29 07:14:21;;;;;;;9.73;3.15;;;;;;;;;;5085346;28;20502;-64
2021/07/29 07:17:06;;;;;;;21.60;4.00;;;;;;;;;;5050906;28;20122;-67
2021/07/29 07:19:56;;;;;;;10.50;3.97;;;;;;;;;;5049289;28;20064;-64
2021/07/29 07:22:41;;;;;;;8.25;3.00;;;;;;;;;;5071906;28;20096;-64
2021/07/29 07:25:26;;;;;;;13.90;3.33;;;;;;;;;;5091056;28;20055;-64
2021/07/29 07:28:11;;;;;;;9.65;2.45;;;;;;;;;;5090523;28;20071;-64
2021/07/29 07:30:57;;;;;;;8.68;2.85;;;;;;;;;;5088187;28;20055;-64
2021/07/29 07:33:42;;;;;;;9.40;2.45;;;;;;;;;;5090128;28;20553;-64
2021/07/29 07:36:27;;;;;;;8.90;2.47;;;;;;;;;;5083149;28;20047;-64
2021/07/29 07:39:13;;;;;;;7.65;2.45;;;;;;;;;;5090627;28;20048;-65
2021/07/29 07:41:58;;;;;;;7.72;2.50;;;;;;;;;;5088094;28;20067;-64
2021/07/29 07:44:43;;;;;;;6.05;2.03;;;;;;;;;;5078780;28;20574;-64
2021/07/29 07:47:29;;;;;;;7.15;1.90;;;;;;;;;;5090824;28;20036;-64
2021/07/29 07:50:14;;;;;;;4.70;2.70;;;;;;;;;;5085958;28;20125;-64
2021/07/29 07:53:03;;;;;;;5.47;1.88;;;;;;;;;;5074493;28;20182;-65
2021/07/29 07:55:48;;;;;;;7.53;2.60;;;;;;;;;;5070705;28;20044;-67
2021/07/29 07:58:34;;;;;;;10.63;3.17;;;;;;;;;;5089536;28;20051;-66
2021/07/29 08:01:20;;;;;;;6.63;2.58;;;;;;;;;;5090257;28;20082;-66
2021/07/29 08:04:05;;;;;;;6.35;2.88;;;;;;;;;;5087820;28;20100;-64
2021/07/29 08:06:50;;;;;;;7.95;2.63;;;;;;;;;;5089772;28;20044;-63
2021/07/29 08:09:36;;;;;;;6.47;2.25;;;;;;;;;;5086832;28;20040;-64
2021/07/29 08:12:21;;;;;;;6.93;2.97;;;;;;;;;;5090179;28;20047;-63
2021/07/29 08:15:07;;;;;;;12.00;2.67;;;;;;;;;;5090038;28;20063;-63
2021/07/29 08:17:52;;;;;;;6.97;2.67;;;;;;;;;;5087055;28;20047;-63
2021/07/29 08:20:40;;;;;;;7.60;2.03;;;;;;;;;;5088684;28;20047;-65
2021/07/29 08:23:25;;;;;;;7.80;2.53;;;;;;;;;;5076716;28;20064;-64
2021/07/29 08:26:11;;;;;;;11.23;2.67;;;;;;;;;;5089969;28;20149;-65
2021/07/29 08:28:57;;;;;;;6.80;2.03;;;;;;;;;;5089896;28;20057;-65
2021/07/29 08:31:42;;;;;;;6.65;1.73;;;;;;;;;;5086868;28;20047;-64
2021/07/29 08:34:28;;;;;;;7.93;2.20;;;;;;;;;;5089586;28;20067;-66
2021/07/29 08:37:13;;;;;;;7.78;1.92;;;;;;;;;;5084239;28;20067;-64
2021/07/29 08:39:58;;;;;;;10.60;2.00;;;;;;;;;;5087000;28;20055;-65
2021/07/29 08:42:43;;;;;;;6.15;2.13;;;;;;;;;;5089442;28;20040;-64
2021/07/29 08:45:29;;;;;;;7.65;2.00;;;;;;;;;;5080571;28;20053;-66
2021/07/29 08:48:14;;;;;;;7.28;1.95;;;;;;;;;;5094378;28;20617;-68
2021/07/29 08:50:59;;;;;;;5.03;1.67;;;;;;;;;;5076009;28;20139;-66
2021/07/29 08:53:45;;;;;;;5.63;1.90;;;;;;;;;;5049628;28;20041;-66
2021/07/29 08:56:30;;;;;;;7.05;1.73;;;;;;;;;;5069734;28;20049;-66
2021/07/29 08:59:15;;;;;;;5.43;1.98;;;;;;;;;;5075293;28;20500;-70
2021/07/29 09:02:01;;;;;;;7.70;1.60;;;;;;;;;;5092564;28;20105;-66
2021/07/29 09:04:51;;;;;;;4.68;1.92;;;;;;;;;;5087536;28;20044;-69
2021/07/29 09:07:37;;;;;;;8.48;2.72;;;;;;;;;;5106359;28;20048;-66
2021/07/29 09:10:23;;;;;;;11.23;2.28;;;;;;;;;;5104786;28;20040;-66
2021/07/29 09:13:08;;;;;;;12.65;2.40;;;;;;;;;;5129668;22;20043;-64
2021/07/29 09:16:09;;;;;;;7.50;2.65;;;;;;;;;;5074456;28;20055;-64
2021/07/29 09:18:55;;;;;;;8.73;2.20;;;;;;;;;;5075137;28;20075;-64
2021/07/29 09:21:40;;;;;;;12.48;2.58;;;;;;;;;;5081050;28;20043;-64
2021/07/29 09:24:26;;;;;;;7.68;2.38;;;;;;;;;;5094074;28;20504;-64
2021/07/29 09:27:11;;;;;;;5.95;2.17;;;;;;;;;;5074841;28;20567;-65
2021/07/29 09:30:01;;;;;;;7.47;1.70;;;;;;;;;;5074659;28;20556;-64
2021/07/29 09:32:58;;;;;;;10.55;2.38;;;;;;;;;;5059795;28;20106;-65
2021/07/29 09:35:44;;;;;;;8.73;2.30;;;;;;;;;;5067500;28;20059;-64
2021/07/29 09:38:31;;;;;;;11.02;2.58;;;;;;;;;;5094962;28;20044;-64
2021/07/29 09:41:27;;;;;;;11.57;2.22;;;;;;;;;;5094763;28;20071;-65
2021/07/29 09:44:15;;;;;;;4.65;1.92;;;;;;;;;;5094826;28;20097;-65
2021/07/29 09:47:03;;;;;;;7.43;2.05;;;;;;;;;;5093442;28;20071;-64
2021/07/29 09:49:49;;;;;;;8.35;1.85;;;;;;;;;;5087861;28;20551;-65
2021/07/29 09:52:34;;;;;;;5.85;1.42;;;;;;;;;;5096863;28;20047;-64
2021/07/29 09:55:19;;;;;;;6.05;1.63;;;;;;;;;;5079482;28;20127;-63
2021/07/29 09:58:05;;;;;;;7.80;1.40;;;;;;;;;;5079620;28;20058;-64
2021/07/29 10:00:50;;;;;;;7.20;2.13;;;;;;;;;;5092359;28;20161;-63
2021/07/29 10:03:36;;;;;;;6.35;1.58;;;;;;;;;;5093403;28;20068;-63
2021/07/29 10:06:22;;;;;;;8.25;2.55;;;;;;;;;;5094518;28;20106;-63
2021/07/29 10:09:11;;;;;;;7.25;1.92;;;;;;;;;;5081687;28;20048;-64
2021/07/29 10:11:58;;;;;;;4.65;1.35;;;;;;;;;;5103665;28;20420;-65
2021/07/29 10:14:54;;;;;;;5.63;1.85;;;;;;;;;;5086046;28;20101;-64
2021/07/29 10:17:41;;;;;;;6.82;1.75;;;;;;;;;;5069131;28;20045;-63
2021/07/29 10:20:26;;;;;;;7.95;1.80;;;;;;;;;;5069166;28;20044;-63
2021/07/29 10:23:15;;;;;;;7.55;1.70;;;;;;;;;;5069288;28;20101;-64
2021/07/29 10:26:06;;;;;;;6.85;1.75;;;;;;;;;;5079550;28;20042;-63
2021/07/29 10:28:52;;;;;;;7.30;1.67;;;;;;;;;;5094195;28;20055;-62
2021/07/29 10:31:50;;;;;;;6.00;1.80;;;;;;;;;;5093616;28;20097;-62
2021/07/29 10:34:35;;;;;;;5.47;2.15;;;;;;;;;;5092849;28;20040;-70
2021/07/29 10:37:20;;;;;;;5.50;2.15;;;;;;;;;;5077733;28;20043;-70
2021/07/29 10:40:06;;;;;;;3.03;1.50;;;;;;;;;;5078929;28;20115;-72
2021/07/29 10:42:52;;;;;;;4.97;1.20;;;;;;;;;;5093767;28;20170;-72
2021/07/29 10:45:49;;;;;;;5.95;1.95;;;;;;;;;;5091554;28;20117;-72
2021/07/29 10:48:44;;;;;;;5.30;2.00;;;;;;;;;;5078984;28;20058;-73
2021/07/29 10:51:29;;;;;;;5.30;1.50;;;;;;;;;;5092577;28;20071;-73
2021/07/29 10:54:15;;;;;;;6.93;2.33;;;;;;;;;;5093896;28;20122;-74
2021/07/29 10:57:00;;;;;;;7.53;2.17;;;;;;;;;;5093508;28;20036;-72
2021/07/29 10:59:45;;;;;;;8.27;1.73;;;;;;;;;;5093252;28;20055;-71
2021/07/29 11:02:37;;;;;;;5.10;1.50;;;;;;;;;;5077868;28;20036;-70
2021/07/29 11:05:27;;;;;;;6.82;2.20;;;;;;;;;;5094036;28;20154;-71
2021/07/29 11:08:13;;;;;;;6.82;1.95;;;;;;;;;;5066493;28;20082;-71
2021/07/29 11:11:02;;;;;;;5.63;1.77;;;;;;;;;;5076945;28;20043;-72
2021/07/29 11:13:47;;;;;;;7.53;2.13;;;;;;;;;;5077813;28;20059;-72
2021/07/29 11:16:32;;;;;;;7.40;1.83;;;;;;;;;;5078254;28;20440;-71
2021/07/29 11:19:18;;;;;;;5.28;2.25;;;;;;;;;;5077595;28;20123;-72
2021/07/29 11:22:04;;;;;;;6.15;1.88;;;;;;;;;;5071483;28;20047;-71
2021/07/29 11:24:49;;;;;;;7.45;2.22;;;;;;;;;;5046067;28;20036;-71
2021/07/29 11:27:34;;;;;;;6.60;1.88;;;;;;;;;;5075105;28;20048;-71
2021/07/29 11:30:20;;;;;;;7.32;1.92;;;;;;;;;;5044035;28;20166;-70
2021/07/29 11:33:05;;;;;;;6.57;2.20;;;;;;;;;;5072256;28;20486;-71
2021/07/29 11:35:51;;;;;;;8.30;2.25;;;;;;;;;;5078932;28;20402;-71
2021/07/29 11:38:37;;;;;;;5.65;1.63;;;;;;;;;;5079792;28;20275;-72
2021/07/29 11:41:23;;;;;;;6.93;2.08;;;;;;;;;;5093139;28;20406;-71
2021/07/29 11:44:08;;;;;;;6.13;1.70;;;;;;;;;;5092587;28;20048;-73
2021/07/29 11:46:57;;;;;;;6.25;2.28;;;;;;;;;;5092656;28;20043;-72
2021/07/29 11:49:48;;;;;;;4.25;1.63;;;;;;;;;;5062958;28;20533;-71
2021/07/29 11:52:34;;;;;;;5.90;1.92;;;;;;;;;;5091627;28;20505;-72
2021/07/29 11:55:20;;;;;;;7.32;1.85;;;;;;;;;;5092805;28;20141;-72
2021/07/29 11:58:06;;;;;;;3.10;2.03;;;;;;;;;;5077766;28;20047;-70
2021/07/29 12:00:54;;;;;;;7.70;2.33;;;;;;;;;;5066270;28;20046;-70
2021/07/29 12:03:40;;;;;;;6.60;1.90;;;;;;;;;;5078269;28;20043;-71
2021/07/29 12:06:26;;;;;;;8.52;2.70;;;;;;;;;;5077324;28;20515;-73
2021/07/29 12:09:11;;;;;;;4.20;2.08;;;;;;;;;;5092380;28;20074;-74
2021/07/29 12:11:56;;;;;;;9.38;2.35;;;;;;;;;;5092612;28;20058;-71
2021/07/29 12:14:45;;;;;;;6.63;1.48;;;;;;;;;;5078161;28;20047;-71
2021/07/29 12:17:30;;;;;;;7.20;2.00;;;;;;;;;;5063135;28;20115;-72
2021/07/29 12:20:16;;;;;;;5.35;1.77;;;;;;;;;;5092010;28;20044;-73
2021/07/29 12:23:11;;;;;;;8.57;2.00;;;;;;;;;;5091928;28;20162;-72
2021/07/29 12:25:57;;;;;;;7.10;1.90;;;;;;;;;;5090760;28;20037;-71
2021/07/29 12:28:45;;;;;;;5.60;1.60;;;;;;;;;;5092680;28;20504;-72
2021/07/29 12:31:31;;;;;;;7.32;2.00;;;;;;;;;;5077914;28;20050;-71
2021/07/29 12:34:17;;;;;;;6.35;1.83;;;;;;;;;;5076536;28;20051;-71
2021/07/29 12:37:02;;;;;;;5.70;1.45;;;;;;;;;;5081739;28;20490;-72
2021/07/29 12:39:54;;;;;;;7.32;1.38;;;;;;;;;;5064698;28;20044;-73
2021/07/29 12:43:41;;;;;;;5.38;1.42;;;;;;;;;;5094008;28;20047;-72
2021/07/29 12:46:26;;;;;;;8.02;1.50;;;;;;;;;;4993226;28;20058;-72
2021/07/29 12:49:13;;;;;;;4.85;1.48;;;;;;;;;;5095979;28;20575;-72
2021/07/29 12:51:58;;;;;;;6.03;1.88;;;;;;;;;;5095661;28;20526;-72
2021/07/29 12:55:06;;;;;;;7.80;1.98;;;;;;;;;;5094959;28;20410;-72
2021/07/29 12:57:52;;;;;;;6.20;1.65;;;;;;;;;;5095666;28;20046;-72
2021/07/29 13:00:41;;;;;;;5.45;1.50;;;;;;;;;;5079664;28;20047;-72
2021/07/29 13:03:27;;;;;;;5.32;1.33;;;;;;;;;;5080522;28;20044;-71
2021/07/29 13:06:12;;;;;;;5.90;1.58;;;;;;;;;;5065935;28;20409;-73
2021/07/29 13:08:58;;;;;;;8.15;2.22;;;;;;;;;;5081696;28;20124;-71
2021/07/29 13:11:44;;;;;;;7.03;2.10;;;;;;;;;;5066634;28;20044;-72
2021/07/29 13:14:29;;;;;;;4.38;1.52;;;;;;;;;;5092219;28;20055;-73
2021/07/29 13:17:14;;;;;;;6.57;2.13;;;;;;;;;;5094430;28;20047;-74
2021/07/29 13:20:00;;;;;;;6.95;2.03;;;;;;;;;;5094374;28;20508;-72
2021/07/29 13:22:46;;;;;;;6.03;1.52;;;;;;;;;;5095153;28;20040;-72
2021/07/29 13:25:31;;;;;;;6.00;1.50;;;;;;;;;;5095059;28;20046;-72
2021/07/29 13:28:17;;;;;;;6.00;1.67;;;;;;;;;;5094170;28;20036;-73
2021/07/29 13:31:03;;;;;;;6.85;1.40;;;;;;;;;;5079875;28;20476;-73
2021/07/29 13:33:48;;;;;;;6.05;1.52;;;;;;;;;;5065827;28;20047;-71
2021/07/29 13:36:33;;;;;;;5.43;1.80;;;;;;;;;;5079022;28;20477;-71
2021/07/29 13:39:18;;;;;;;2.42;0.95;;;;;;;;;;5065505;28;20048;-73
2021/07/29 13:42:04;;;;;;;5.68;1.10;;;;;;;;;;5094783;28;20051;-72
2021/07/29 13:44:55;;;;;;;5.63;1.65;;;;;;;;;;5095208;28;20040;-73
2021/07/29 13:47:41;;;;;;;;;;;;;;;;;;5093998;28;20062;-73
2021/07/29 13:50:30;;;;;;;4.25;1.05;;;;;;;;;;5094554;28;19930;-72
2021/07/29 13:53:16;;;;;;;6.30;1.52;;;;;;;;;;5078092;28;20070;-73
2021/07/29 13:56:01;;;;;;;4.97;1.50;;;;;;;;;;5080254;28;20449;-72
2021/07/29 13:58:46;;;;;;;5.07;1.10;;;;;;;;;;5089870;28;20486;-72
2021/07/29 14:01:32;;;;;;;5.10;1.10;;;;;;;;;;5094130;28;20119;-72
2021/07/29 14:04:17;;;;;;;5.90;1.40;;;;;;;;;;5079095;28;20410;-72
2021/07/29 14:07:02;;;;;;;3.35;1.15;;;;;;;;;;5094057;28;20425;-73
2021/07/29 14:09:47;;;;;;;8.80;2.08;;;;;;;;;;5093919;28;20699;-71
2021/07/29 14:12:39;;;;;;;3.17;1.20;;;;;;;;;;5078953;28;20434;-72
2021/07/29 14:15:24;;;;;;;4.88;1.10;;;;;;;;;;5079347;28;20105;-72
2021/07/29 14:18:11;;;;;;;4.38;1.10;;;;;;;;;;5078599;28;20047;-73
2021/07/29 14:21:05;;;;;;;6.75;1.50;;;;;;;;;;5094302;28;20490;-72
2021/07/29 14:23:50;;;;;;;2.60;1.00;;;;;;;;;;5088395;28;20043;-73
2021/07/29 14:26:35;;;;;;;4.40;1.40;;;;;;;;;;5073784;28;20049;-73
2021/07/29 14:29:21;;;;;;;5.28;0.98;;;;;;;;;;5084656;28;20040;-73
2021/07/29 14:32:06;;;;;;;6.82;1.52;;;;;;;;;;5080776;28;20230;-72
2021/07/29 14:34:52;;;;;;;6.35;1.10;;;;;;;;;;5091433;28;20146;-73
2021/07/29 14:37:38;;;;;;;5.30;1.00;;;;;;;;;;5078548;28;20497;-73
2021/07/29 14:40:23;;;;;;;7.40;1.20;;;;;;;;;;5078075;28;20043;-73
2021/07/29 14:43:09;;;;;;;7.13;1.40;;;;;;;;;;5092546;28;20121;-73
2021/07/29 14:51:57;;;;;;;3.50;0.98;;;;;;;;;;5059534;28;20075;-73
2021/07/29 14:54:43;;;;;;;5.78;1.42;;;;;;;;;;5083285;28;20040;-72
2021/07/29 14:57:38;;;;;;;5.60;1.00;;;;;;;;;;5093203;28;20073;-74
2021/07/29 15:18:37;;;;;;;4.00;1.00;;;;;;;;;;5093101;28;20039;-73
2021/07/29 16:08:12;;;;;;;4.63;0.98;;;;;;;;;;5090563;28;20607;-76
2021/07/29 16:10:51;;;;;;;4.95;1.27;;;;;;;;;;5091742;28;20598;-76
2021/07/29 16:13:43;;;;;;;3.30;0.98;;;;;;;;;;5091216;28;20113;-75
2021/07/29 16:16:28;;;;;;;6.33;1.20;;;;;;;;;;5090970;28;20491;-76
2021/07/29 16:19:15;;;;;;;6.18;1.83;;;;;;;;;;5091116;28;20282;-76
2021/07/29 16:22:01;;;;;;;7.22;1.20;;;;;;;;;;5077219;28;20444;-76
2021/07/29 16:24:46;;;;;;;5.65;1.40;;;;;;;;;;5091990;28;20040;-76
2021/07/29 16:27:31;;;;;;;6.72;1.15;;;;;;;;;;5091101;28;20512;-75
2021/07/29 16:30:16;;;;;;;6.00;1.42;;;;;;;;;;5089711;28;20410;-77
2021/07/29 16:33:01;;;;;;;3.95;1.02;;;;;;;;;;5090651;28;20047;-78
2021/07/29 16:35:46;;;;;;;5.50;0.95;;;;;;;;;;5091974;28;20182;-77
2021/07/29 16:38:32;;;;;;;3.60;0.95;;;;;;;;;;5079428;28;20128;-77
2021/07/29 16:41:18;;;;;;;2.58;0.85;;;;;;;;;;5090704;28;20052;-76
2021/07/29 16:44:06;;;;;;;4.75;1.40;;;;;;;;;;5091045;28;20115;-75
2021/07/29 16:46:51;;;;;;;4.32;1.02;;;;;;;;;;5090072;28;20089;-76
2021/07/29 16:49:37;;;;;;;4.75;1.40;;;;;;;;;;5091630;28;20043;-76
2021/07/29 16:52:22;;;;;;;3.03;0.95;;;;;;;;;;5091658;28;20043;-76
2021/07/29 16:55:07;;;;;;;4.18;1.08;;;;;;;;;;5091268;28;20177;-75
2021/07/29 16:57:53;;;;;;;4.70;0.98;;;;;;;;;;5090110;28;20036;-76
2021/07/29 17:00:39;;;;;;;3.67;0.90;;;;;;;;;;5089873;28;20051;-76
2021/07/29 17:03:24;;;;;;;4.20;0.90;;;;;;;;;;5091641;28;20047;-75
2021/07/29 17:06:10;;;;;;;4.78;1.20;;;;;;;;;;5091057;28;20039;-76
2021/07/29 17:08:55;;;;;;;6.40;1.10;;;;;;;;;;5089555;28;20134;-76
2021/07/29 17:11:42;;;;;;;3.70;1.02;;;;;;;;;;5088183;28;20077;-76
2021/07/29 17:14:27;;;;;;;2.97;0.95;;;;;;;;;;5091080;28;20054;-76
2021/07/29 17:17:13;;;;;;;4.18;1.65;;;;;;;;;;5089035;28;20040;-77
2021/07/29 17:19:59;;;;;;;5.68;0.90;;;;;;;;;;5084001;28;20409;-77
2021/07/29 17:22:44;;;;;;;4.78;0.88;;;;;;;;;;5102599;28;20405;-78
2021/07/29 17:25:29;;;;;;;7.50;1.30;;;;;;;;;;5087974;28;20067;-76
2021/07/29 17:28:15;;;;;;;4.85;1.05;;;;;;;;;;5091232;28;20047;-77
2021/07/29 17:31:00;;;;;;;3.67;1.05;;;;;;;;;;5092574;28;20101;-77
2021/07/29 17:33:45;;;;;;;2.88;1.30;;;;;;;;;;5095157;28;20051;-76
2021/07/29 17:36:30;;;;;;;4.00;1.48;;;;;;;;;;5095175;28;20047;-77
2021/07/29 17:39:18;;;;;;;4.70;1.40;;;;;;;;;;5095049;28;20119;-77
2021/07/29 17:42:04;;;;;;;3.08;0.98;;;;;;;;;;5094706;28;20541;-76
2021/07/29 17:44:49;;;;;;;7.50;1.42;;;;;;;;;;5092564;28;20448;-75